createdAt,value
2022-09-18T00:01:15.943Z,7.74
2022-09-18T00:03:43.342Z,7.85
2022-09-18T00:06:13.007Z,8.03
2022-09-18T00:08:40.350Z,7.92
2022-09-18T00:11:08.771Z,7.91
2022-09-18T00:13:37.306Z,8.04
2022-09-18T00:16:05.476Z,8.11
2022-09-18T00:18:32.158Z,8.18
2022-09-18T00:21:06.552Z,8.06
2022-09-18T00:23:33.391Z,8.18
2022-09-18T00:26:00.092Z,7.88
2022-09-18T00:28:26.853Z,7.97
2022-09-18T00:30:53.979Z,7.69
2022-09-18T00:33:20.767Z,7.87
2022-09-18T00:35:47.292Z,7.92
2022-09-18T00:38:13.766Z,7.81
2022-09-18T00:40:40.400Z,7.63
2022-09-18T00:43:27.725Z,7.96
2022-09-18T00:46:08.609Z,7.82
2022-09-18T00:48:45.095Z,8.02
2022-09-18T00:51:12.647Z,7.97
2022-09-18T00:53:42.227Z,8.17
2022-09-18T00:56:11.121Z,7.93
2022-09-18T00:58:37.679Z,8.02
2022-09-18T01:01:04.679Z,8.07
2022-09-18T01:03:31.244Z,7.99
2022-09-18T01:06:13.813Z,8.02
2022-09-18T01:09:09.437Z,8.06
2022-09-18T01:11:58.571Z,7.61
2022-09-18T01:14:25.127Z,7.55
2022-09-18T01:17:08.816Z,7.51
2022-09-18T01:19:44.131Z,7.62
2022-09-18T01:23:03.624Z,7.67
2022-09-18T01:25:30.316Z,7.73
2022-09-18T01:28:22.912Z,7.80
2022-09-18T01:30:53.099Z,7.65
2022-09-18T01:33:30.158Z,7.54
2022-09-18T01:36:01.930Z,7.41
2022-09-18T01:38:55.103Z,7.78
2022-09-18T01:41:24.874Z,7.79
2022-09-18T01:43:57.773Z,7.87
2022-09-18T01:46:25.577Z,7.77
2022-09-18T01:48:58.460Z,7.70
2022-09-18T01:51:51.087Z,7.74
2022-09-18T01:54:21.723Z,7.61
2022-09-18T01:56:52.555Z,7.63
2022-09-18T01:59:23.938Z,7.58
2022-09-18T02:01:53.293Z,7.66
2022-09-18T02:04:25.538Z,7.79
2022-09-18T02:07:00.019Z,7.97
2022-09-18T02:09:27.385Z,7.97
2022-09-18T02:11:56.500Z,7.95
2022-09-18T02:14:31.473Z,7.89
2022-09-18T02:17:05.945Z,8.00
2022-09-18T02:19:51.139Z,7.90
2022-09-18T02:22:21.462Z,7.76
2022-09-18T02:24:51.016Z,7.94
2022-09-18T02:27:17.968Z,7.95
2022-09-18T02:29:46.495Z,8.04
2022-09-18T02:32:14.241Z,8.01
2022-09-18T02:34:40.842Z,7.92
2022-09-18T02:37:13.359Z,7.69
2022-09-18T02:39:55.094Z,7.80
2022-09-18T02:42:27.790Z,8.03
2022-09-18T02:44:54.231Z,8.12
2022-09-18T02:47:44.794Z,7.87
2022-09-18T02:50:35.987Z,8.08
2022-09-18T02:53:40.231Z,8.06
2022-09-18T02:56:23.164Z,7.92
2022-09-18T02:59:02.592Z,7.89
2022-09-18T03:01:29.954Z,7.84
2022-09-18T03:04:03.490Z,7.85
2022-09-18T03:06:29.970Z,7.80
2022-09-18T03:08:56.514Z,7.88
2022-09-18T03:11:23.276Z,7.93
2022-09-18T03:13:49.752Z,7.93
2022-09-18T03:16:16.274Z,7.84
2022-09-18T03:18:42.771Z,7.62
2022-09-18T03:21:09.303Z,7.81
2022-09-18T03:23:35.844Z,7.73
2022-09-18T03:26:02.425Z,7.66
2022-09-18T03:28:31.744Z,7.92
2022-09-18T03:30:58.371Z,7.67
2022-09-18T03:33:24.880Z,7.96
2022-09-18T03:35:51.448Z,8.02
2022-09-18T03:38:18.023Z,7.94
2022-09-18T03:40:47.806Z,7.77
2022-09-18T03:43:14.617Z,7.69
2022-09-18T03:45:41.120Z,7.76
2022-09-18T03:48:07.607Z,7.76
2022-09-18T03:50:34.142Z,7.97
2022-09-18T03:53:01.118Z,7.72
2022-09-18T03:55:27.610Z,7.97
2022-09-18T03:57:54.146Z,7.86
2022-09-18T04:00:20.829Z,7.97
2022-09-18T04:02:47.359Z,8.08
2022-09-18T04:05:15.446Z,7.89
2022-09-18T04:07:42.040Z,7.95
2022-09-18T04:10:09.152Z,7.80
2022-09-18T04:12:35.723Z,7.66
2022-09-18T04:15:02.294Z,7.86
2022-09-18T04:17:28.841Z,7.97
2022-09-18T04:19:55.327Z,7.75
2022-09-18T04:22:22.894Z,7.90
2022-09-18T04:24:50.619Z,7.97
2022-09-18T04:27:17.583Z,7.80
2022-09-18T04:29:44.077Z,7.67
2022-09-18T04:32:10.781Z,7.72
2022-09-18T04:34:37.313Z,7.90
2022-09-18T04:37:06.886Z,7.93
2022-09-18T04:39:36.611Z,8.00
2022-09-18T04:42:03.485Z,7.75
2022-09-18T04:44:29.999Z,7.60
2022-09-18T04:46:56.610Z,7.84
2022-09-18T04:49:23.399Z,7.88
2022-09-18T04:51:49.954Z,7.93
2022-09-18T04:54:16.517Z,8.07
2022-09-18T04:56:43.056Z,7.98
2022-09-18T04:59:09.864Z,7.96
2022-09-18T05:01:36.523Z,7.91
2022-09-18T05:04:03.059Z,7.92
2022-09-18T05:06:29.583Z,8.08
2022-09-18T05:08:57.471Z,8.00
2022-09-18T05:11:24.354Z,8.00
2022-09-18T05:13:52.791Z,8.13
2022-09-18T05:16:19.550Z,8.05
2022-09-18T05:18:46.103Z,8.03
2022-09-18T05:21:12.631Z,7.65
2022-09-18T05:23:40.022Z,7.96
2022-09-18T05:26:06.947Z,7.92
2022-09-18T05:28:33.686Z,7.98
2022-09-18T05:31:01.090Z,7.98
2022-09-18T05:33:27.852Z,8.12
2022-09-18T05:35:57.323Z,7.96
2022-09-18T05:38:25.113Z,8.08
2022-09-18T05:40:51.764Z,8.17
2022-09-18T05:43:18.273Z,7.90
2022-09-18T05:45:44.980Z,8.07
2022-09-18T05:48:14.563Z,8.09
2022-09-18T05:50:42.655Z,7.74
2022-09-18T05:53:13.387Z,8.02
2022-09-18T05:55:40.645Z,7.90
2022-09-18T05:58:12.068Z,7.93
2022-09-18T06:00:38.796Z,8.06
2022-09-18T06:03:07.753Z,8.05
2022-09-18T06:05:35.940Z,7.88
2022-09-18T06:08:03.553Z,7.88
2022-09-18T06:10:30.537Z,7.60
2022-09-18T06:13:05.029Z,7.80
2022-09-18T06:15:32.511Z,7.86
2022-09-18T06:17:59.296Z,8.04
2022-09-18T06:20:25.868Z,7.99
2022-09-18T06:22:52.676Z,7.96
2022-09-18T06:25:21.751Z,7.82
2022-09-18T06:27:53.710Z,7.93
2022-09-18T06:30:20.541Z,8.04
2022-09-18T06:32:47.075Z,8.17
2022-09-18T06:35:13.765Z,8.20
2022-09-18T06:37:40.275Z,8.01
2022-09-18T06:40:07.280Z,8.02
2022-09-18T06:42:33.880Z,8.19
2022-09-18T06:45:00.393Z,8.19
2022-09-18T06:47:26.922Z,8.13
2022-09-18T06:49:53.383Z,7.95
2022-09-18T06:52:19.869Z,8.08
2022-09-18T06:54:46.364Z,8.07
2022-09-18T06:57:12.873Z,8.05
2022-09-18T06:59:39.365Z,8.05
2022-09-18T07:02:14.109Z,8.17
2022-09-18T07:04:42.839Z,7.95
2022-09-18T07:07:09.409Z,8.00
2022-09-18T07:09:35.906Z,8.10
2022-09-18T07:12:02.842Z,8.22
2022-09-18T07:14:29.510Z,8.30
2022-09-18T07:16:56.013Z,8.36
2022-09-18T07:19:22.748Z,8.37
2022-09-18T07:21:49.278Z,8.39
2022-09-18T07:24:15.756Z,8.44
2022-09-18T07:26:42.224Z,8.29
2022-09-18T07:29:10.194Z,8.39
2022-09-18T07:31:37.077Z,8.26
2022-09-18T07:34:03.650Z,8.27
2022-09-18T07:36:30.475Z,8.27
2022-09-18T07:38:58.051Z,8.40
2022-09-18T07:41:24.536Z,8.26
2022-09-18T07:43:51.475Z,8.26
2022-09-18T07:46:18.066Z,8.40
2022-09-18T07:48:44.615Z,8.31
2022-09-18T07:51:11.227Z,8.40
2022-09-18T07:53:37.971Z,8.15
2022-09-18T07:56:12.348Z,8.17
2022-09-18T07:58:39.130Z,8.25
2022-09-18T08:01:06.622Z,8.14
2022-09-18T08:03:35.037Z,8.06
2022-09-18T08:06:05.130Z,8.17
2022-09-18T08:08:31.667Z,8.06
2022-09-18T08:10:58.292Z,8.26
2022-09-18T08:13:24.863Z,7.94
2022-09-18T08:15:51.472Z,8.07
2022-09-18T08:18:21.113Z,8.35
2022-09-18T08:20:47.817Z,8.32
2022-09-18T08:23:14.301Z,8.20
2022-09-18T08:25:42.152Z,8.29
2022-09-18T08:28:10.066Z,8.42
2022-09-18T08:30:36.681Z,8.23
2022-09-18T08:33:06.620Z,8.30
2022-09-18T08:35:34.105Z,8.15
2022-09-18T08:38:01.909Z,8.27
2022-09-18T08:40:41.277Z,8.53
2022-09-18T08:43:34.412Z,8.50
2022-09-18T08:46:30.735Z,8.39
2022-09-18T08:49:16.056Z,8.57
2022-09-18T08:52:03.404Z,8.43
2022-09-18T08:54:59.678Z,8.63
2022-09-18T08:57:35.737Z,9.68
2022-09-18T09:00:24.475Z,8.83
2022-09-18T09:02:53.564Z,9.00
2022-09-18T09:05:29.134Z,8.95
2022-09-18T09:08:08.635Z,9.00
2022-09-18T09:10:41.716Z,9.06
2022-09-18T09:13:30.485Z,9.10
2022-09-18T09:16:07.322Z,9.05
2022-09-18T09:19:01.607Z,9.10
2022-09-18T09:21:50.997Z,9.15
2022-09-18T09:24:31.318Z,9.11
2022-09-18T09:26:59.113Z,9.02
2022-09-18T09:29:30.514Z,9.04
2022-09-18T09:32:07.851Z,9.15
2022-09-18T09:34:44.710Z,9.31
2022-09-18T09:37:20.504Z,9.24
2022-09-18T09:39:58.749Z,9.17
2022-09-18T09:42:34.390Z,8.99
2022-09-18T09:45:22.591Z,9.15
2022-09-18T09:48:00.989Z,9.39
2022-09-18T09:50:49.495Z,9.43
2022-09-18T09:53:16.126Z,9.30
2022-09-18T09:55:51.780Z,9.45
2022-09-18T09:58:31.937Z,9.42
2022-09-18T10:01:10.892Z,9.47
2022-09-18T10:04:11.845Z,9.45
2022-09-18T10:06:50.581Z,9.56
2022-09-18T10:09:38.446Z,9.39
2022-09-18T10:12:25.132Z,9.41
2022-09-18T10:14:53.520Z,9.48
2022-09-18T10:17:21.987Z,9.55
2022-09-18T10:19:49.189Z,9.68
2022-09-18T10:22:19.728Z,9.53
2022-09-18T10:25:01.833Z,10.69
2022-09-18T10:27:28.467Z,10.12
2022-09-18T10:29:55.061Z,9.91
2022-09-18T10:32:36.512Z,9.78
2022-09-18T10:35:28.657Z,9.84
2022-09-18T10:37:55.879Z,9.91
2022-09-18T10:40:37.264Z,10.02
2022-09-18T10:43:04.958Z,9.96
2022-09-18T10:45:38.003Z,9.91
2022-09-18T10:48:27.887Z,9.95
2022-09-18T10:51:02.402Z,9.94
2022-09-18T10:53:33.792Z,9.96
2022-09-18T10:56:17.133Z,10.00
2022-09-18T10:58:45.020Z,9.92
2022-09-18T11:01:13.170Z,9.94
2022-09-18T11:03:42.837Z,9.93
2022-09-18T11:06:19.063Z,9.90
2022-09-18T11:08:52.006Z,9.77
2022-09-18T11:11:26.522Z,9.87
2022-09-18T11:14:17.624Z,9.88
2022-09-18T11:16:48.674Z,9.98
2022-09-18T11:19:26.614Z,9.98
2022-09-18T11:21:59.424Z,9.99
2022-09-18T11:24:28.461Z,9.80
2022-09-18T11:26:57.525Z,9.52
2022-09-18T11:29:40.017Z,9.77
2022-09-18T11:32:38.083Z,9.91
2022-09-18T11:35:13.147Z,9.91
2022-09-18T11:37:53.103Z,9.70
2022-09-18T11:40:43.162Z,9.87
2022-09-18T11:43:37.587Z,9.84
2022-09-18T11:46:07.286Z,9.60
2022-09-18T11:48:44.420Z,9.56
2022-09-18T11:51:18.912Z,9.72
2022-09-18T11:53:52.031Z,9.93
2022-09-18T11:56:46.201Z,9.99
2022-09-18T11:59:24.305Z,9.80
2022-09-18T12:01:56.723Z,9.78
2022-09-18T12:04:46.400Z,9.90
2022-09-18T12:07:38.289Z,10.08
2022-09-18T12:10:38.068Z,10.15
2022-09-18T12:13:28.859Z,10.23
2022-09-18T12:16:06.780Z,10.07
2022-09-18T12:18:56.867Z,10.41
2022-09-18T12:21:36.361Z,10.36
2022-09-18T12:24:03.228Z,10.36
2022-09-18T12:26:39.595Z,10.43
2022-09-18T12:29:25.995Z,10.44
2022-09-18T12:31:58.628Z,10.52
2022-09-18T12:34:31.888Z,10.59
2022-09-18T12:37:18.399Z,10.71
2022-09-18T12:40:10.478Z,10.84
2022-09-18T12:43:00.169Z,10.83
2022-09-18T12:45:36.355Z,10.89
2022-09-18T12:48:20.831Z,10.65
2022-09-18T12:50:50.380Z,10.75
2022-09-18T12:53:41.833Z,10.87
2022-09-18T12:56:54.083Z,10.89
2022-09-18T13:00:12.286Z,10.74
2022-09-18T13:02:53.242Z,10.94
2022-09-18T13:05:33.954Z,11.01
2022-09-18T13:08:25.481Z,10.94
2022-09-18T13:10:59.162Z,10.99
2022-09-18T13:13:40.255Z,10.97
2022-09-18T13:16:16.715Z,11.13
2022-09-18T13:19:05.017Z,11.22
2022-09-18T13:21:37.585Z,11.20
2022-09-18T13:24:06.068Z,11.21
2022-09-18T13:26:37.777Z,11.28
2022-09-18T13:29:05.738Z,11.26
2022-09-18T13:31:35.142Z,11.28
2022-09-18T13:34:17.345Z,11.22
2022-09-18T13:36:46.256Z,11.21
2022-09-18T13:39:18.689Z,11.38
2022-09-18T13:41:53.376Z,10.93
2022-09-18T13:44:23.490Z,11.06
2022-09-18T13:46:52.262Z,10.93
2022-09-18T13:49:32.124Z,10.94
2022-09-18T13:52:41.716Z,11.12
2022-09-18T13:55:11.403Z,11.23
2022-09-18T13:57:38.407Z,10.97
2022-09-18T14:00:20.382Z,11.12
2022-09-18T14:02:51.475Z,10.97
2022-09-18T14:05:31.035Z,11.09
2022-09-18T14:08:07.087Z,11.10
2022-09-18T14:11:04.957Z,11.33
2022-09-18T14:13:37.583Z,11.27
2022-09-18T14:16:11.789Z,11.30
2022-09-18T14:18:44.335Z,11.39
2022-09-18T14:21:42.554Z,11.23
2022-09-18T14:24:25.290Z,11.39
2022-09-18T14:27:01.484Z,11.84
2022-09-18T14:29:31.559Z,11.53
2022-09-18T14:32:00.187Z,11.62
2022-09-18T14:34:38.950Z,11.36
2022-09-18T14:37:28.865Z,11.06
2022-09-18T14:39:57.179Z,11.24
2022-09-18T14:42:36.046Z,11.39
2022-09-18T14:45:12.360Z,11.50
2022-09-18T14:47:40.544Z,11.40
2022-09-18T14:50:32.689Z,11.59
2022-09-18T14:53:02.387Z,11.45
2022-09-18T14:55:39.057Z,11.52
2022-09-18T14:58:08.508Z,11.52
2022-09-18T15:00:37.450Z,11.38
2022-09-18T15:03:08.973Z,11.49
2022-09-18T15:05:36.410Z,11.33
2022-09-18T15:08:13.232Z,11.40
2022-09-18T15:10:40.626Z,12.16
2022-09-18T15:13:09.808Z,11.96
2022-09-18T15:15:39.491Z,11.84
2022-09-18T15:18:29.645Z,11.91
2022-09-18T15:21:01.777Z,11.67
2022-09-18T15:23:33.176Z,11.75
2022-09-18T15:26:03.094Z,11.73
2022-09-18T15:28:33.554Z,11.59
2022-09-18T15:31:07.429Z,11.70
2022-09-18T15:33:36.499Z,11.43
2022-09-18T15:36:04.701Z,11.73
2022-09-18T15:38:40.790Z,11.80
2022-09-18T15:41:43.166Z,11.62
2022-09-18T15:44:34.567Z,11.70
2022-09-18T15:47:26.120Z,11.63
2022-09-18T15:49:52.848Z,11.76
2022-09-18T15:53:03.084Z,11.83
2022-09-18T15:55:53.809Z,11.84
2022-09-18T15:58:42.818Z,11.85
2022-09-18T16:01:19.407Z,11.75
2022-09-18T16:03:46.600Z,11.78
2022-09-18T16:06:27.259Z,11.86
2022-09-18T16:08:55.892Z,11.90
2022-09-18T16:11:42.172Z,11.81
2022-09-18T16:14:46.951Z,11.88
2022-09-18T16:17:28.434Z,11.91
2022-09-18T16:20:00.818Z,11.87
2022-09-18T16:22:28.967Z,11.93
2022-09-18T16:24:57.108Z,11.96
2022-09-18T16:27:25.543Z,11.69
2022-09-18T16:29:52.061Z,11.79
2022-09-18T16:32:20.289Z,11.87
2022-09-18T16:34:47.423Z,11.88
2022-09-18T16:37:17.436Z,11.88
2022-09-18T16:39:44.943Z,11.90
2022-09-18T16:42:17.873Z,11.85
2022-09-18T16:44:45.718Z,11.94
2022-09-18T16:47:14.869Z,11.93
2022-09-18T16:49:46.770Z,11.96
2022-09-18T16:52:14.574Z,11.98
2022-09-18T16:54:41.153Z,11.95
2022-09-18T16:57:14.042Z,11.97
2022-09-18T16:59:43.418Z,11.81
2022-09-18T17:02:11.911Z,11.96
2022-09-18T17:04:38.547Z,11.95
2022-09-18T17:07:06.415Z,11.95
2022-09-18T17:09:33.024Z,11.93
2022-09-18T17:11:59.677Z,11.96
2022-09-18T17:14:26.378Z,11.93
2022-09-18T17:16:53.114Z,11.97
2022-09-18T17:19:20.053Z,11.93
2022-09-18T17:21:47.187Z,11.91
2022-09-18T17:24:13.745Z,11.95
2022-09-18T17:26:41.616Z,11.96
2022-09-18T17:29:11.356Z,11.94
2022-09-18T17:31:37.942Z,11.88
2022-09-18T17:34:05.805Z,11.86
2022-09-18T17:36:32.448Z,11.86
2022-09-18T17:39:02.305Z,11.81
2022-09-18T17:41:29.530Z,11.85
2022-09-18T17:43:56.076Z,11.70
2022-09-18T17:46:22.665Z,11.77
2022-09-18T17:48:54.185Z,11.69
2022-09-18T17:51:20.899Z,11.74
2022-09-18T17:53:48.958Z,11.83
2022-09-18T17:56:18.783Z,11.74
2022-09-18T17:58:46.159Z,11.74
2022-09-18T18:01:13.884Z,11.75
2022-09-18T18:03:41.165Z,11.71
2022-09-18T18:06:08.503Z,11.74
2022-09-18T18:08:35.058Z,11.68
2022-09-18T18:11:07.344Z,11.62
2022-09-18T18:13:36.802Z,11.68
2022-09-18T18:16:09.669Z,11.74
2022-09-18T18:18:39.637Z,11.71
2022-09-18T18:21:07.363Z,11.67
2022-09-18T18:23:35.015Z,11.72
2022-09-18T18:26:03.310Z,11.63
2022-09-18T18:28:31.821Z,11.67
2022-09-18T18:31:06.325Z,11.69
2022-09-18T18:33:34.190Z,11.68
2022-09-18T18:36:31.166Z,11.57
2022-09-18T18:38:59.773Z,11.53
2022-09-18T18:41:29.172Z,11.58
2022-09-18T18:43:58.232Z,11.48
2022-09-18T18:46:26.958Z,11.34
2022-09-18T18:49:01.895Z,11.39
2022-09-18T18:51:34.663Z,11.46
2022-09-18T18:54:02.887Z,11.46
2022-09-18T18:56:32.379Z,11.49
2022-09-18T18:59:01.205Z,11.46
2022-09-18T19:01:29.328Z,11.49
2022-09-18T19:03:58.254Z,11.46
2022-09-18T19:06:26.607Z,11.35
2022-09-18T19:08:57.965Z,11.45
2022-09-18T19:11:24.747Z,11.21
2022-09-18T19:13:54.122Z,11.41
2022-09-18T19:16:20.752Z,11.28
2022-09-18T19:18:55.044Z,11.27
2022-09-18T19:21:22.470Z,11.22
2022-09-18T19:23:53.625Z,11.29
2022-09-18T19:26:21.278Z,11.22
2022-09-18T19:28:56.110Z,11.26
2022-09-18T19:31:23.241Z,11.24
2022-09-18T19:33:52.350Z,11.30
2022-09-18T19:36:20.747Z,11.31
2022-09-18T19:38:52.142Z,11.27
2022-09-18T19:41:41.768Z,10.99
2022-09-18T19:44:41.717Z,11.04
2022-09-18T19:47:30.294Z,10.93
2022-09-18T19:49:58.526Z,11.04
2022-09-18T19:52:28.546Z,11.05
2022-09-18T19:54:56.718Z,10.94
2022-09-18T19:57:23.887Z,11.00
2022-09-18T19:59:54.540Z,11.11
2022-09-18T20:02:22.564Z,11.09
2022-09-18T20:04:49.156Z,11.15
2022-09-18T20:07:15.659Z,11.04
2022-09-18T20:09:42.315Z,11.10
2022-09-18T20:12:09.970Z,10.99
2022-09-18T20:14:36.615Z,11.03
2022-09-18T20:17:03.177Z,11.06
2022-09-18T20:19:29.901Z,11.01
2022-09-18T20:21:56.984Z,10.97
2022-09-18T20:24:23.477Z,10.77
2022-09-18T20:26:51.454Z,10.70
2022-09-18T20:29:18.117Z,10.54
2022-09-18T20:31:45.954Z,10.66
2022-09-18T20:34:13.965Z,10.75
2022-09-18T20:36:40.510Z,10.65
2022-09-18T20:39:07.229Z,10.69
2022-09-18T20:41:33.759Z,10.63
2022-09-18T20:44:04.956Z,10.63
2022-09-18T20:46:36.998Z,10.73
2022-09-18T20:49:04.195Z,10.70
2022-09-18T20:51:34.850Z,10.54
2022-09-18T20:54:02.849Z,10.37
2022-09-18T20:56:36.140Z,10.42
2022-09-18T20:59:06.637Z,10.55
2022-09-18T21:01:35.504Z,10.51
2022-09-18T21:04:02.759Z,10.39
2022-09-18T21:06:32.048Z,10.50
2022-09-18T21:08:59.719Z,10.36
2022-09-18T21:11:31.534Z,10.59
2022-09-18T21:14:03.446Z,10.64
2022-09-18T21:16:32.580Z,10.72
2022-09-18T21:19:01.931Z,10.61
2022-09-18T21:21:31.031Z,10.49
2022-09-18T21:24:04.234Z,10.46
2022-09-18T21:26:35.992Z,10.25
2022-09-18T21:29:10.330Z,10.28
2022-09-18T21:31:42.531Z,10.44
2022-09-18T21:34:23.483Z,10.27
2022-09-18T21:36:52.096Z,10.23
2022-09-18T21:39:18.578Z,9.94
2022-09-18T21:41:48.326Z,9.92
2022-09-18T21:44:17.915Z,10.07
2022-09-18T21:46:47.949Z,10.28
2022-09-18T21:49:16.100Z,10.28
2022-09-18T21:51:42.887Z,10.37
2022-09-18T21:54:15.202Z,10.22
2022-09-18T21:56:42.647Z,10.31
2022-09-18T21:59:10.252Z,10.06
2022-09-18T22:01:38.229Z,9.94
2022-09-18T22:04:07.324Z,9.98
2022-09-18T22:06:35.983Z,10.04
2022-09-18T22:09:08.943Z,9.55
2022-09-18T22:11:37.036Z,9.79
2022-09-18T22:14:06.681Z,9.72
2022-09-18T22:16:33.597Z,9.85
2022-09-18T22:19:00.329Z,9.81
2022-09-18T22:21:32.784Z,9.77
2022-09-18T22:24:21.823Z,9.94
2022-09-18T22:26:51.725Z,9.92
2022-09-18T22:29:21.582Z,9.71
2022-09-18T22:31:49.358Z,9.81
2022-09-18T22:34:18.336Z,9.97
2022-09-18T22:36:46.451Z,9.72
2022-09-18T22:39:14.704Z,9.54
2022-09-18T22:41:41.755Z,9.51
2022-09-18T22:44:08.629Z,9.50
2022-09-18T22:46:37.643Z,9.62
2022-09-18T22:49:05.619Z,9.22
2022-09-18T22:51:32.502Z,9.11
2022-09-18T22:54:04.789Z,9.03
2022-09-18T22:56:31.996Z,8.84
2022-09-18T22:59:02.139Z,8.94
2022-09-18T23:01:31.887Z,9.22
2022-09-18T23:03:59.472Z,8.93
2022-09-18T23:06:26.906Z,9.20
2022-09-18T23:08:55.427Z,8.80
2022-09-18T23:11:25.441Z,9.11
2022-09-18T23:13:56.257Z,8.84
2022-09-18T23:16:25.247Z,8.98
2022-09-18T23:18:54.373Z,9.08
2022-09-18T23:21:22.725Z,9.13
2022-09-18T23:23:50.029Z,9.19
2022-09-18T23:26:19.835Z,9.04
2022-09-18T23:28:47.584Z,8.73
2022-09-18T23:31:18.104Z,9.14
2022-09-18T23:33:48.947Z,9.24
2022-09-18T23:36:18.804Z,9.14
2022-09-18T23:38:46.293Z,9.11
2022-09-18T23:41:15.316Z,9.19
2022-09-18T23:43:50.528Z,9.14
2022-09-18T23:46:18.139Z,9.12
2022-09-18T23:48:45.558Z,9.21
2022-09-18T23:51:12.614Z,9.00
2022-09-18T23:53:41.531Z,9.26
2022-09-18T23:56:12.495Z,9.01
2022-09-18T23:58:40.136Z,9.18
